Time;durP1;ratioP1;P1;durP2;ratioP2;P2;SDS_P1;SDS_P2;PMS_P1;PMS_P2;Temp;Humidity;BMP_temperature;BMP_pressure;BME280_temperature;BME280_humidity;BME280_pressure;Samples;Min_cycle;Max_cycle;Signal;HPM_P1;HPM_P2
2023/08/10 00:02:05;;;;;;;5.95;1.67;;;;;;;13.33;92.16;101998.72;5028487;28;20029;-73
2023/08/10 00:04:33;;;;;;;7.85;1.63;;;;;;;13.37;92.56;101991.22;5028115;28;20099;-73
2023/08/10 00:06:58;;;;;;;2.30;1.70;;;;;;;13.39;92.47;102001.09;5017251;28;20045;-73
2023/08/10 00:09:24;;;;;;;4.20;1.60;;;;;;;13.41;93.07;102000.97;5016298;28;20115;-73
2023/08/10 00:11:49;;;;;;;3.40;1.80;;;;;;;13.42;92.66;102000.00;5027550;28;20029;-73
2023/08/10 00:14:14;;;;;;;4.05;1.80;;;;;;;13.46;92.53;102001.53;5016234;28;20034;-73
2023/08/10 00:16:40;;;;;;;5.15;1.50;;;;;;;13.49;92.68;102012.28;5007973;28;20549;-72
2023/08/10 00:19:05;;;;;;;4.68;1.77;;;;;;;13.50;92.04;102011.31;5008704;28;20022;-72
2023/08/10 00:21:31;;;;;;;3.83;2.00;;;;;;;13.50;91.79;102008.56;5008041;28;20045;-72
2023/08/10 00:23:56;;;;;;;5.95;1.90;;;;;;;13.46;91.53;102002.41;5006622;28;20042;-72
2023/08/10 00:26:23;;;;;;;5.75;1.73;;;;;;;13.47;92.33;102003.28;5007513;28;20034;-72
2023/08/10 00:28:49;;;;;;;4.43;1.70;;;;;;;13.47;92.26;102001.44;5013668;28;20521;-73
2023/08/10 00:31:15;;;;;;;1.73;1.60;;;;;;;13.50;92.88;101993.03;5008691;28;20096;-73
2023/08/10 00:33:41;;;;;;;4.15;1.88;;;;;;;13.52;92.59;102004.78;5005872;28;20112;-72
2023/08/10 00:36:07;;;;;;;4.20;1.55;;;;;;;13.53;93.08;102011.13;5006714;28;20037;-73
2023/08/10 00:38:38;;;;;;;5.55;1.77;;;;;;;13.51;92.79;102016.66;5007456;28;20481;-73
2023/08/10 00:41:04;;;;;;;7.70;1.88;;;;;;;13.53;92.27;102009.25;5006658;28;20501;-72
2023/08/10 00:43:29;;;;;;;3.45;1.40;;;;;;;13.55;93.38;102008.25;5006095;28;20040;-72
2023/08/10 00:45:55;;;;;;;2.53;2.15;;;;;;;13.56;94.31;101993.59;5019784;28;20363;-72
2023/08/10 00:48:22;;;;;;;7.60;2.60;;;;;;;13.55;93.45;101992.72;5007641;28;20030;-72
2023/08/10 00:50:49;;;;;;;8.75;2.40;;;;;;;13.57;93.63;101993.53;5007572;28;20053;-73
2023/08/10 00:53:16;;;;;;;3.28;1.75;;;;;;;13.59;93.92;101999.75;5007466;28;20128;-72
2023/08/10 00:55:43;;;;;;;6.55;2.00;;;;;;;13.62;94.47;101994.09;5007362;28;20092;-73
2023/08/10 00:58:11;;;;;;;6.22;2.05;;;;;;;13.60;94.48;101993.31;4989015;28;20046;-72
2023/08/10 01:00:37;;;;;;;5.35;2.58;;;;;;;13.58;94.79;101988.94;5014720;28;20041;-72
2023/08/10 01:03:04;;;;;;;6.60;2.20;;;;;;;13.56;95.07;101989.00;5006713;28;20084;-72
2023/08/10 01:05:34;;;;;;;3.70;1.50;;;;;;;13.56;94.62;101988.13;5006159;28;20486;-72
2023/08/10 01:08:32;;;;;;;2.80;1.80;;;;;;;13.58;93.80;102000.75;5025453;28;20037;-72
2023/08/10 01:11:18;;;;;;;3.20;2.00;;;;;;;13.58;93.94;102000.75;4989301;28;20428;-73
2023/08/10 01:13:55;;;;;;;4.25;1.95;;;;;;;13.58;94.26;101995.28;5005935;28;20096;-72
2023/08/10 01:16:21;;;;;;;4.05;1.83;;;;;;;13.56;94.02;102005.41;5024191;28;20401;-72
2023/08/10 01:18:49;;;;;;;6.43;2.15;;;;;;;13.55;94.17;102009.13;5025658;28;20025;-72
2023/08/10 01:21:29;;;;;;;4.07;1.90;;;;;;;13.55;94.35;102002.78;5025547;28;20462;-72
2023/08/10 01:23:56;;;;;;;6.80;2.67;;;;;;;13.55;94.12;102009.13;5024783;28;20120;-73
2023/08/10 01:26:23;;;;;;;5.35;2.30;;;;;;;13.57;93.53;102009.03;5026342;28;20033;-72
2023/08/10 01:28:49;;;;;;;7.45;2.80;;;;;;;13.56;94.45;102004.53;5025352;28;20505;-73
2023/08/10 01:31:14;;;;;;;5.50;2.20;;;;;;;13.56;93.72;102007.28;5024318;28;20067;-72
2023/08/10 01:33:39;;;;;;;3.60;2.08;;;;;;;13.52;93.74;102006.59;5026865;28;20124;-72
2023/08/10 01:36:05;;;;;;;5.30;2.80;;;;;;;13.48;93.92;102005.94;5025959;28;20587;-72
2023/08/10 01:38:30;;;;;;;4.90;2.50;;;;;;;13.43;94.55;102007.19;5025586;28;20076;-73
2023/08/10 01:40:56;;;;;;;5.05;2.17;;;;;;;13.42;93.90;102005.47;5026162;28;20036;-73
2023/08/10 01:43:21;;;;;;;5.18;1.92;;;;;;;13.38;93.67;102013.00;5026529;28;20402;-72
2023/08/10 01:45:51;;;;;;;7.38;3.15;;;;;;;13.36;93.87;102006.75;5023479;28;20035;-73
2023/08/10 01:48:25;;;;;;;5.32;2.30;;;;;;;13.33;93.48;102008.78;5026686;28;20046;-72
2023/08/10 01:50:53;;;;;;;7.13;2.65;;;;;;;13.31;93.72;102010.75;5023207;28;20489;-73
2023/08/10 01:53:26;;;;;;;4.55;2.25;;;;;;;13.26;93.33;102006.47;5030245;28;20080;-73
2023/08/10 01:55:52;;;;;;;7.05;2.65;;;;;;;13.22;93.26;102012.22;5028844;28;20042;-71
2023/08/10 01:58:18;;;;;;;7.55;2.30;;;;;;;13.16;93.28;102007.16;5016839;28;20057;-73
2023/08/10 02:00:44;;;;;;;4.90;2.00;;;;;;;13.09;94.23;102008.50;5009658;28;20042;-72
2023/08/10 02:03:10;;;;;;;4.45;2.53;;;;;;;13.02;93.74;102003.44;5010472;28;20045;-73
2023/08/10 02:05:35;;;;;;;4.45;2.63;;;;;;;13.00;93.58;102002.63;5009873;28;20561;-72
2023/08/10 02:08:00;;;;;;;6.38;2.70;;;;;;;12.96;93.38;102013.88;5008945;28;20045;-73
2023/08/10 02:10:26;;;;;;;4.72;2.58;;;;;;;12.89;94.29;102007.94;5022837;28;20109;-72
2023/08/10 02:12:51;;;;;;;4.90;2.50;;;;;;;12.85;94.26;102013.69;5009766;28;20048;-72
2023/08/10 02:15:17;;;;;;;4.70;2.95;;;;;;;12.80;94.10;102013.97;4997566;28;20025;-72
2023/08/10 02:17:43;;;;;;;4.47;2.80;;;;;;;12.76;93.95;102005.09;5008947;28;20437;-72
2023/08/10 02:20:13;;;;;;;5.13;2.65;;;;;;;12.73;93.81;102004.44;5010145;28;20060;-71
2023/08/10 02:22:45;;;;;;;5.72;3.40;;;;;;;12.66;93.47;102016.69;5014131;28;20087;-72
2023/08/10 02:25:10;;;;;;;7.15;3.05;;;;;;;12.62;93.72;102018.72;5028282;28;20034;-72
2023/08/10 02:27:36;;;;;;;5.22;2.92;;;;;;;12.59;93.86;102009.84;5028452;28;20033;-72
2023/08/10 02:30:02;;;;;;;7.00;3.50;;;;;;;12.55;93.50;102017.38;5014975;28;20026;-71
2023/08/10 02:32:27;;;;;;;3.88;2.70;;;;;;;12.52;93.57;102010.22;5008734;28;20550;-72
2023/08/10 02:34:53;;;;;;;7.45;2.97;;;;;;;12.49;93.71;102020.47;5011713;28;20160;-71
2023/08/10 02:37:18;;;;;;;7.95;2.70;;;;;;;12.43;94.06;102013.53;5028735;28;20361;-71
2023/08/10 02:39:44;;;;;;;4.55;2.40;;;;;;;12.39;94.76;102016.53;5023283;28;20037;-71
2023/08/10 02:42:10;;;;;;;6.38;3.13;;;;;;;12.36;94.70;102014.03;5008114;28;20045;-72
2023/08/10 02:44:35;;;;;;;4.95;2.92;;;;;;;12.33;94.33;102022.38;5012484;28;20492;-71
2023/08/10 02:47:01;;;;;;;5.43;3.45;;;;;;;12.29;93.89;102026.28;5028162;28;20477;-72
2023/08/10 02:49:26;;;;;;;6.75;3.70;;;;;;;12.24;94.35;102019.25;5029283;28;20033;-72
2023/08/10 02:51:51;;;;;;;4.35;3.22;;;;;;;12.20;95.17;102019.50;5027303;28;20091;-72
2023/08/10 02:54:17;;;;;;;6.30;3.47;;;;;;;12.17;95.29;102022.41;5025579;28;20504;-72
2023/08/10 02:56:42;;;;;;;10.27;3.05;;;;;;;12.14;95.91;102023.50;5009331;28;20037;-72
2023/08/10 02:59:08;;;;;;;5.05;3.25;;;;;;;12.13;96.09;102031.78;5009018;28;20077;-71
2023/08/10 03:01:33;;;;;;;4.18;3.00;;;;;;;12.11;95.03;102029.13;5028649;28;20052;-72
2023/08/10 03:03:59;;;;;;;6.10;2.95;;;;;;;12.08;94.99;102028.47;5034343;28;20037;-72
2023/08/10 03:06:24;;;;;;;4.90;3.25;;;;;;;12.06;94.73;102030.38;5028895;28;20032;-71
2023/08/10 03:08:50;;;;;;;8.07;3.08;;;;;;;12.03;94.82;102027.81;5027678;28;20083;-71
2023/08/10 03:11:16;;;;;;;6.45;3.67;;;;;;;11.99;94.83;102038.06;5026991;28;20037;-71
2023/08/10 03:13:42;;;;;;;5.10;3.17;;;;;;;11.96;94.69;102036.38;5025862;28;20456;-72
2023/08/10 03:16:07;;;;;;;4.93;2.90;;;;;;;11.95;94.78;102034.63;5012621;28;20486;-70
2023/08/10 03:18:33;;;;;;;5.70;3.28;;;;;;;11.93;94.74;102041.13;5008453;28;20068;-71
2023/08/10 03:20:58;;;;;;;6.60;3.22;;;;;;;11.94;94.79;102042.91;5008824;28;20034;-71
2023/08/10 03:23:23;;;;;;;5.88;3.47;;;;;;;11.93;94.92;102039.28;5025111;28;20037;-71
2023/08/10 03:25:49;;;;;;;7.80;3.13;;;;;;;11.94;95.16;102049.25;5026637;28;20033;-72
2023/08/10 03:28:16;;;;;;;8.07;3.15;;;;;;;11.94;95.61;102049.25;5026483;28;20034;-71
2023/08/10 03:30:42;;;;;;;5.63;3.20;;;;;;;11.96;95.81;102035.50;5024672;28;20080;-71
2023/08/10 03:33:09;;;;;;;6.45;3.88;;;;;;;11.96;95.91;102038.22;5023440;28;20038;-71
2023/08/10 03:35:35;;;;;;;6.25;3.35;;;;;;;11.97;96.03;102037.25;4991604;28;20030;-71
2023/08/10 03:38:03;;;;;;;10.15;2.90;;;;;;;11.97;96.26;102029.06;5007363;28;20037;-71
2023/08/10 03:40:28;;;;;;;3.70;2.75;;;;;;;11.99;96.21;102032.59;5008512;28;20075;-71
2023/08/10 03:42:53;;;;;;;5.03;2.92;;;;;;;11.99;95.47;102035.34;5007808;28;20046;-71
2023/08/10 03:45:19;;;;;;;5.45;3.63;;;;;;;11.98;96.16;102031.72;5020976;28;20036;-71
2023/08/10 03:47:44;;;;;;;7.82;3.63;;;;;;;12.01;96.80;102038.84;5028160;28;20568;-71
2023/08/10 03:50:11;;;;;;;6.53;3.13;;;;;;;12.03;97.03;102030.56;5026774;28;20100;-71
2023/08/10 03:52:36;;;;;;;7.15;3.30;;;;;;;12.03;97.10;102031.47;5026310;28;20030;-71
2023/08/10 03:55:03;;;;;;;4.82;3.08;;;;;;;12.05;96.79;102036.81;5026466;28;20405;-71
2023/08/10 03:57:29;;;;;;;6.00;3.40;;;;;;;12.03;96.61;102033.28;5023871;28;20045;-71
2023/08/10 03:59:54;;;;;;;5.40;3.05;;;;;;;12.00;96.17;102035.22;5015993;28;20049;-71
2023/08/10 04:02:20;;;;;;;5.50;3.47;;;;;;;11.98;96.03;102044.47;5008267;28;20041;-71
2023/08/10 04:04:45;;;;;;;5.65;3.28;;;;;;;11.92;96.59;102040.25;5008181;28;20388;-71
2023/08/10 04:07:12;;;;;;;9.23;4.75;;;;;;;11.90;97.59;102036.75;5006881;28;20120;-71
2023/08/10 04:09:37;;;;;;;7.18;4.43;;;;;;;11.84;99.31;102039.81;5018010;28;20029;-71
2023/08/10 04:12:03;;;;;;;7.13;3.15;;;;;;;11.83;97.99;102040.78;5026824;28;20128;-72
2023/08/10 04:14:28;;;;;;;12.77;3.33;;;;;;;11.83;97.88;102037.19;5021825;28;20033;-71
2023/08/10 04:16:54;;;;;;;5.65;3.22;;;;;;;11.81;97.13;102045.44;5006799;28;20387;-71
2023/08/10 04:19:20;;;;;;;7.93;3.08;;;;;;;11.81;97.25;102047.28;5006434;28;20096;-71
2023/08/10 04:21:45;;;;;;;7.00;3.20;;;;;;;11.81;97.30;102048.16;5008304;28;20037;-71
2023/08/10 04:24:10;;;;;;;6.85;3.00;;;;;;;11.81;96.79;102050.00;5006557;28;20049;-71
2023/08/10 04:26:36;;;;;;;5.20;3.63;;;;;;;11.79;96.66;102041.03;5007882;28;20524;-71
2023/08/10 04:29:03;;;;;;;4.25;3.42;;;;;;;11.78;96.87;102039.28;5010970;28;20025;-71
2023/08/10 04:31:28;;;;;;;4.72;2.95;;;;;;;11.78;97.23;102047.47;5024652;28;20052;-71
2023/08/10 04:33:53;;;;;;;7.28;3.13;;;;;;;11.76;98.14;102047.56;5026713;28;20029;-71
2023/08/10 04:36:19;;;;;;;4.35;2.97;;;;;;;11.74;98.76;102061.25;5027339;28;20071;-71
2023/08/10 04:38:44;;;;;;;5.13;3.22;;;;;;;11.73;98.41;102059.50;5024944;28;20480;-71
2023/08/10 04:41:09;;;;;;;5.13;2.88;;;;;;;11.72;98.28;102057.75;5026707;28;20132;-71
2023/08/10 04:43:35;;;;;;;5.07;2.97;;;;;;;11.75;97.81;102062.16;5007782;28;20445;-71
2023/08/10 04:46:00;;;;;;;5.28;2.63;;;;;;;11.71;98.16;102056.00;5025954;28;20037;-71
2023/08/10 04:48:25;;;;;;;5.22;3.47;;;;;;;11.76;98.71;102069.38;5025944;28;20037;-71
2023/08/10 04:50:51;;;;;;;7.57;3.10;;;;;;;11.79;98.03;102073.75;5025978;28;20025;-71
2023/08/10 04:53:17;;;;;;;4.00;3.10;;;;;;;11.78;98.40;102075.59;5016745;28;20100;-71
2023/08/10 04:55:43;;;;;;;4.70;3.33;;;;;;;11.78;98.24;102078.31;5007471;28;20457;-71
2023/08/10 04:58:08;;;;;;;5.68;2.75;;;;;;;11.80;97.85;102076.41;5026576;28;20053;-70
2023/08/10 05:00:34;;;;;;;6.95;3.15;;;;;;;11.83;98.52;102073.50;5020870;28;20041;-70
2023/08/10 05:02:59;;;;;;;4.97;3.20;;;;;;;11.86;98.63;102076.06;5024782;28;20493;-71
2023/08/10 05:05:25;;;;;;;6.97;4.25;;;;;;;11.91;98.53;102075.81;5008277;28;20104;-71
2023/08/10 05:07:50;;;;;;;8.27;3.70;;;;;;;11.94;98.40;102076.50;5009892;28;20056;-71
2023/08/10 05:10:15;;;;;;;6.88;3.50;;;;;;;11.98;98.22;102072.66;5007282;28;20524;-71
2023/08/10 05:12:41;;;;;;;6.63;3.83;;;;;;;12.04;98.44;102071.41;5006537;28;20083;-71
2023/08/10 05:15:09;;;;;;;7.03;4.53;;;;;;;12.08;98.88;102069.38;5014040;28;20040;-71
2023/08/10 05:17:35;;;;;;;7.05;3.95;;;;;;;12.10;99.33;102070.16;5027725;28;20049;-74
2023/08/10 05:20:06;;;;;;;6.88;3.35;;;;;;;12.12;98.45;102066.34;5024688;28;20037;-71
2023/08/10 05:22:31;;;;;;;6.03;3.65;;;;;;;12.17;98.22;102066.06;5007078;28;20117;-71
2023/08/10 05:24:56;;;;;;;7.72;3.38;;;;;;;12.20;98.94;102065.91;5006752;28;20160;-71
2023/08/10 05:27:22;;;;;;;7.65;3.72;;;;;;;12.25;99.13;102066.50;5025566;28;20081;-71
2023/08/10 05:29:48;;;;;;;4.60;3.78;;;;;;;12.32;99.49;102075.22;5023183;28;20057;-71
2023/08/10 05:32:13;;;;;;;4.88;4.00;;;;;;;12.41;99.89;102074.66;5010787;28;20041;-71
2023/08/10 05:34:39;;;;;;;7.10;4.18;;;;;;;12.49;99.55;102073.19;5011030;28;20137;-71
2023/08/10 05:37:04;;;;;;;7.25;4.32;;;;;;;12.60;100.00;102069.84;5010006;28;20041;-71
2023/08/10 05:39:30;;;;;;;7.13;4.50;;;;;;;12.69;100.00;102069.25;5010407;28;20037;-71
2023/08/10 05:41:55;;;;;;;7.03;4.82;;;;;;;12.82;100.00;102065.75;5010474;28;20080;-71
2023/08/10 05:44:20;;;;;;;7.93;5.88;;;;;;;12.93;100.00;102060.50;5010095;28;20046;-71
2023/08/10 05:46:46;;;;;;;12.10;5.82;;;;;;;13.04;100.00;102063.44;5030477;28;20312;-71
2023/08/10 05:49:11;;;;;;;7.32;5.70;;;;;;;13.17;100.00;102063.53;5030505;28;20056;-71
2023/08/10 05:51:36;;;;;;;9.00;5.80;;;;;;;13.26;100.00;102061.13;5026012;28;20064;-71
2023/08/10 05:54:02;;;;;;;9.40;5.85;;;;;;;13.38;100.00;102058.56;5010494;28;20044;-71
2023/08/10 05:56:28;;;;;;;10.30;6.05;;;;;;;13.45;99.86;102063.56;5018125;28;20037;-71
2023/08/10 05:58:53;;;;;;;9.27;5.78;;;;;;;13.54;99.65;102059.34;5026740;28;20080;-71
2023/08/10 06:01:18;;;;;;;10.75;6.00;;;;;;;13.70;98.67;102060.06;5010192;28;20049;-71
2023/08/10 06:03:44;;;;;;;10.05;6.50;;;;;;;13.84;98.76;102063.75;5010476;28;20046;-71
2023/08/10 06:06:09;;;;;;;11.80;6.93;;;;;;;13.98;99.76;102058.22;5010242;28;20576;-71
2023/08/10 06:08:35;;;;;;;8.98;6.20;;;;;;;14.10;98.51;102054.69;5022070;28;20045;-71
2023/08/10 06:11:01;;;;;;;9.13;7.15;;;;;;;14.28;98.63;102058.03;5029528;28;20139;-71
2023/08/10 06:13:27;;;;;;;10.00;6.80;;;;;;;14.46;99.39;102050.41;5024459;28;20375;-71
2023/08/10 06:15:52;;;;;;;11.50;7.70;;;;;;;14.59;98.99;102051.31;5018133;28;20053;-71
2023/08/10 06:18:18;;;;;;;10.15;7.60;;;;;;;14.75;98.58;102053.84;5010350;28;20037;-72
2023/08/10 06:20:44;;;;;;;12.88;7.80;;;;;;;14.88;99.17;102057.50;5010102;28;20052;-72
2023/08/10 06:23:10;;;;;;;11.98;7.00;;;;;;;14.98;97.22;102060.44;5009932;28;20038;-72
2023/08/10 06:25:35;;;;;;;14.25;8.23;;;;;;;15.02;96.84;102078.44;5010512;28;20026;-72
2023/08/10 06:28:01;;;;;;;13.65;7.40;;;;;;;14.95;94.63;102077.09;5009084;28;20034;-72
2023/08/10 06:30:27;;;;;;;11.23;7.68;;;;;;;14.89;95.24;102067.47;5010531;28;20052;-72
2023/08/10 06:32:53;;;;;;;13.18;7.82;;;;;;;14.83;96.17;102064.25;5010138;28;20361;-72
2023/08/10 06:35:19;;;;;;;10.38;8.13;;;;;;;14.79;95.91;102063.63;5008576;28;20038;-72
2023/08/10 06:37:45;;;;;;;10.88;8.18;;;;;;;14.77;96.24;102062.84;5009309;28;20056;-72
2023/08/10 06:40:11;;;;;;;12.95;6.82;;;;;;;14.73;95.61;102062.16;5009658;28;20034;-72
2023/08/10 06:42:37;;;;;;;11.40;7.97;;;;;;;14.72;96.23;102060.41;5009773;28;20052;-71
2023/08/10 06:45:09;;;;;;;11.80;8.00;;;;;;;14.72;96.73;102054.94;5008872;28;20022;-72
2023/08/10 06:47:35;;;;;;;13.52;8.55;;;;;;;14.71;96.65;102053.19;5009033;28;20053;-72
2023/08/10 06:50:01;;;;;;;17.30;9.10;;;;;;;14.68;96.71;102049.78;5008023;28;20371;-72
2023/08/10 06:52:27;;;;;;;12.45;9.27;;;;;;;14.70;97.04;102050.56;5009559;28;20038;-72
2023/08/10 06:54:52;;;;;;;11.68;8.60;;;;;;;14.70;96.16;102048.72;5009695;28;20122;-72
2023/08/10 06:57:21;;;;;;;11.20;8.38;;;;;;;14.73;95.69;102051.19;5008915;28;20071;-72
2023/08/10 06:59:47;;;;;;;10.07;7.97;;;;;;;14.74;96.80;102046.63;5016349;28;20036;-72
2023/08/10 07:02:13;;;;;;;14.77;8.30;;;;;;;14.77;96.08;102044.53;5029221;28;20116;-71
2023/08/10 07:04:39;;;;;;;15.90;8.85;;;;;;;14.80;96.78;102047.06;5016107;28;20034;-71
2023/08/10 07:07:05;;;;;;;11.20;7.55;;;;;;;14.84;96.23;102044.13;5009895;28;20045;-72
2023/08/10 07:09:31;;;;;;;13.55;9.18;;;;;;;14.85;96.10;102046.72;5018685;28;20112;-72
2023/08/10 07:11:56;;;;;;;10.27;6.97;;;;;;;14.91;95.18;102042.69;5028685;28;20033;-72
2023/08/10 07:14:21;;;;;;;8.55;5.63;;;;;;;14.97;92.53;102042.25;5021819;28;20051;-72
2023/08/10 07:16:47;;;;;;;11.43;5.35;;;;;;;15.04;93.00;102043.56;5029051;28;20099;-72
2023/08/10 07:19:13;;;;;;;6.75;5.13;;;;;;;15.04;92.19;102046.28;5027719;28;20387;-72
2023/08/10 07:21:38;;;;;;;7.95;5.70;;;;;;;15.08;91.98;102041.47;5025435;28;20399;-72
2023/08/10 07:24:05;;;;;;;7.28;5.30;;;;;;;15.12;92.31;102043.00;5009480;28;20068;-72
2023/08/10 07:26:34;;;;;;;8.70;6.28;;;;;;;15.18;92.83;102051.66;5007046;28;20041;-72
2023/08/10 07:28:59;;;;;;;8.10;5.70;;;;;;;15.22;92.74;102057.78;5013011;28;20018;-73
2023/08/10 07:31:31;;;;;;;9.38;4.68;;;;;;;15.25;90.96;102058.44;5008676;28;20049;-72
2023/08/10 07:34:00;;;;;;;11.20;4.30;;;;;;;15.31;87.21;102058.00;5008927;28;20172;-72
2023/08/10 07:36:26;;;;;;;7.30;4.28;;;;;;;15.37;87.60;102053.06;5007640;28;20299;-72
2023/08/10 07:38:52;;;;;;;7.30;4.50;;;;;;;15.42;88.26;102054.47;4991025;28;20482;-72
2023/08/10 07:41:17;;;;;;;8.20;4.70;;;;;;;15.47;87.86;102051.38;5008123;28;20545;-72
2023/08/10 07:43:42;;;;;;;8.07;5.13;;;;;;;15.53;87.45;102053.69;5008694;28;20056;-73
2023/08/10 07:46:08;;;;;;;9.23;4.75;;;;;;;15.61;88.30;102058.59;5008958;28;20489;-71
2023/08/10 07:48:33;;;;;;;7.82;3.72;;;;;;;15.65;87.46;102057.41;5008789;28;20493;-72
2023/08/10 07:51:00;;;;;;;5.18;3.00;;;;;;;15.70;82.42;102060.69;5008513;28;20060;-73
2023/08/10 07:53:28;;;;;;;7.90;2.60;;;;;;;15.76;82.11;102057.47;5008580;28;20053;-72
2023/08/10 07:55:54;;;;;;;6.40;2.45;;;;;;;15.84;82.58;102060.50;5006822;28;20041;-73
2023/08/10 07:58:19;;;;;;;3.25;1.90;;;;;;;15.93;76.54;102065.31;5008020;28;20465;-72
2023/08/10 08:00:44;;;;;;;3.95;1.80;;;;;;;16.17;77.43;102056.19;5023164;28;20037;-73
2023/08/10 08:03:10;;;;;;;6.93;2.50;;;;;;;16.58;80.70;102064.84;5010400;28;20057;-73
2023/08/10 08:05:37;;;;;;;6.45;2.00;;;;;;;17.22;76.52;102071.75;5017292;28;20559;-72
2023/08/10 08:08:07;;;;;;;3.15;1.80;;;;;;;17.86;71.68;102058.22;4991209;28;20482;-73
2023/08/10 08:10:36;;;;;;;3.15;1.92;;;;;;;18.28;72.52;102058.34;5026686;28;20076;-73
2023/08/10 08:13:03;;;;;;;3.90;1.85;;;;;;;18.79;72.55;102066.75;5025775;28;20025;-73
2023/08/10 08:15:31;;;;;;;2.80;1.55;;;;;;;19.35;65.94;102065.44;5025736;28;20037;-73
2023/08/10 08:18:37;;;;;;;5.10;1.63;;;;;;;19.71;65.98;102054.88;5027932;28;20417;-73
2023/08/10 08:21:03;;;;;;;3.95;1.67;;;;;;;20.27;68.58;102060.63;5043251;28;20037;-74
2023/08/10 08:23:28;;;;;;;4.95;1.85;;;;;;;20.56;58.82;102052.38;5010364;28;20046;-73
2023/08/10 08:25:54;;;;;;;4.40;1.60;;;;;;;21.02;62.15;102052.56;5007525;28;20041;-74
2023/08/10 08:28:19;;;;;;;4.57;1.52;;;;;;;21.64;62.87;102046.38;5006093;28;20069;-73
2023/08/10 08:30:44;;;;;;;3.28;1.52;;;;;;;22.14;61.80;102050.59;5007956;28;20048;-73
2023/08/10 08:33:10;;;;;;;2.88;1.67;;;;;;;22.61;59.35;102053.97;5008097;28;20045;-73
2023/08/10 08:35:36;;;;;;;3.45;1.55;;;;;;;22.88;56.57;102054.91;5008256;28;20045;-73
2023/08/10 08:38:01;;;;;;;3.53;1.40;;;;;;;23.15;54.83;102065.00;5026951;28;20041;-73
2023/08/10 08:40:27;;;;;;;3.88;1.63;;;;;;;23.53;56.09;102065.56;5027499;28;20051;-74
2023/08/10 08:42:54;;;;;;;4.55;1.27;;;;;;;23.77;49.50;102059.28;5024913;28;20041;-73
2023/08/10 08:45:20;;;;;;;4.00;1.73;;;;;;;24.11;54.40;102062.88;5020709;28;20051;-73
2023/08/10 08:47:46;;;;;;;5.85;1.05;;;;;;;24.51;53.84;102063.97;5043034;28;20033;-73
2023/08/10 08:50:11;;;;;;;5.38;1.50;;;;;;;24.65;50.67;102054.06;5026125;28;20033;-74
2023/08/10 08:52:39;;;;;;;2.67;1.30;;;;;;;24.51;45.93;102057.56;5021818;28;20037;-73
2023/08/10 08:55:07;;;;;;;1.40;1.10;;;;;;;24.05;51.52;102052.41;5008059;28;20119;-73
2023/08/10 08:57:32;;;;;;;1.77;1.33;;;;;;;23.91;52.20;102062.25;5006939;28;21537;-74
2023/08/10 08:59:59;;;;;;;1.95;1.10;;;;;;;23.82;49.52;102060.50;5016432;28;20053;-73
2023/08/10 09:02:24;;;;;;;1.83;1.33;;;;;;;23.79;53.33;102060.00;5046835;28;20042;-72
2023/08/10 09:04:51;;;;;;;2.13;1.38;;;;;;;23.70;50.44;102056.31;5030362;28;20121;-71
2023/08/10 09:07:17;;;;;;;5.40;1.65;;;;;;;23.61;51.73;102051.72;5031704;28;20022;-72
2023/08/10 09:09:43;;;;;;;3.20;1.40;;;;;;;23.41;52.16;102034.44;5024815;28;20033;-72
2023/08/10 09:12:35;;;;;;;2.20;1.30;;;;;;;23.39;55.60;102029.03;5029863;28;20047;-70
2023/08/10 09:15:08;;;;;;;1.38;1.25;;;;;;;23.43;51.34;102033.22;5024301;28;20108;-71
2023/08/10 09:17:36;;;;;;;4.70;1.45;;;;;;;23.40;52.53;102029.91;5047261;28;20048;-71
2023/08/10 09:20:05;;;;;;;2.05;1.20;;;;;;;23.56;55.23;102031.91;5023691;28;20489;-72
2023/08/10 09:22:35;;;;;;;2.60;1.27;;;;;;;23.54;55.28;102031.19;5011259;28;20357;-72
2023/08/10 09:25:02;;;;;;;2.58;1.60;;;;;;;23.59;51.76;102026.00;5009869;28;20482;-71
2023/08/10 09:27:28;;;;;;;2.42;1.20;;;;;;;23.55;54.50;102036.59;5011256;28;20492;-71
2023/08/10 09:30:06;;;;;;;2.30;1.40;;;;;;;23.56;54.13;102035.56;5011091;28;20042;-71
2023/08/10 09:32:32;;;;;;;2.72;1.13;;;;;;;23.65;54.70;102034.56;5011302;28;20041;-71
2023/08/10 09:34:58;;;;;;;2.03;1.23;;;;;;;23.75;51.53;102034.44;5011249;28;20045;-72
2023/08/10 09:37:25;;;;;;;2.47;1.40;;;;;;;23.79;48.29;102037.75;5011055;28;20036;-72
2023/08/10 09:39:59;;;;;;;2.42;1.48;;;;;;;23.79;51.18;102030.28;5010821;28;20088;-72
2023/08/10 09:42:25;;;;;;;5.20;1.48;;;;;;;23.78;52.71;102033.22;5010396;28;20038;-72
2023/08/10 09:44:51;;;;;;;4.10;1.42;;;;;;;23.83;54.22;102028.91;5015178;28;20037;-71
2023/08/10 09:47:18;;;;;;;3.55;1.40;;;;;;;23.74;53.77;102041.03;5010984;28;20120;-72
2023/08/10 09:50:05;;;;;;;4.38;1.23;;;;;;;23.68;53.99;102034.22;5010827;28;20116;-72
2023/08/10 09:52:32;;;;;;;3.33;1.50;;;;;;;23.78;51.33;102039.66;5010888;28;20072;-71
2023/08/10 09:54:57;;;;;;;2.67;1.50;;;;;;;23.85;52.59;102037.06;5009623;28;20124;-72
2023/08/10 09:57:24;;;;;;;16.35;1.77;;;;;;;23.77;54.37;102034.25;5009883;28;20120;-72
2023/08/10 09:59:54;;;;;;;1.75;1.17;;;;;;;23.83;48.94;102030.81;5013797;28;20065;-71
2023/08/10 10:02:20;;;;;;;3.50;1.48;;;;;;;23.91;52.53;102037.25;5030818;28;20396;-72
2023/08/10 10:04:47;;;;;;;2.28;1.25;;;;;;;23.87;49.93;102030.28;5014619;28;20493;-73
2023/08/10 10:07:13;;;;;;;1.83;1.23;;;;;;;23.83;51.55;102040.03;5010867;28;20092;-72
2023/08/10 10:09:43;;;;;;;6.68;1.30;;;;;;;23.83;53.10;102041.94;5020987;28;20041;-71
2023/08/10 10:12:13;;;;;;;2.13;1.35;;;;;;;24.04;52.78;102044.25;5029762;28;20044;-71
2023/08/10 10:14:40;;;;;;;3.55;1.40;;;;;;;24.12;52.35;102038.72;5018435;28;20132;-72
2023/08/10 10:17:06;;;;;;;2.70;1.45;;;;;;;24.11;53.26;102045.31;5009702;28;20029;-73
2023/08/10 10:19:33;;;;;;;3.33;1.52;;;;;;;24.16;51.00;102045.66;5010217;28;20103;-72
2023/08/10 10:22:00;;;;;;;3.15;1.40;;;;;;;24.08;53.09;102051.22;5010598;28;20595;-73
2023/08/10 10:24:31;;;;;;;2.95;1.63;;;;;;;23.93;50.87;102053.78;5008310;28;20037;-70
2023/08/10 10:27:05;;;;;;;3.70;1.75;;;;;;;24.14;52.88;102056.94;5009941;28;20140;-73
2023/08/10 10:29:49;;;;;;;3.20;1.73;;;;;;;24.26;54.34;102048.28;5009951;28;20034;-72
2023/08/10 10:32:21;;;;;;;11.63;1.58;;;;;;;24.26;53.62;102049.16;5030438;28;20385;-72
2023/08/10 10:34:49;;;;;;;4.53;1.80;;;;;;;24.27;49.68;102047.25;5029396;28;20052;-72
2023/08/10 10:37:29;;;;;;;2.33;1.60;;;;;;;24.37;50.53;102048.84;5029189;28;20038;-73
2023/08/10 10:40:18;;;;;;;2.55;1.63;;;;;;;24.51;52.33;102044.50;5028192;28;20038;-71
2023/08/10 10:43:02;;;;;;;2.60;1.50;;;;;;;24.57;54.74;102034.59;5018468;28;20041;-72
2023/08/10 10:45:33;;;;;;;6.78;2.08;;;;;;;24.74;50.27;102032.69;5013840;28;20038;-73
2023/08/10 10:47:59;;;;;;;4.55;1.65;;;;;;;24.89;53.31;102034.56;5009861;28;20062;-72
2023/08/10 10:50:28;;;;;;;2.85;1.50;;;;;;;25.18;53.44;102035.94;5008711;28;20025;-73
2023/08/10 10:52:58;;;;;;;2.75;1.75;;;;;;;25.25;46.63;102041.66;5010037;28;20061;-73
2023/08/10 10:55:35;;;;;;;3.80;1.60;;;;;;;25.36;51.21;102038.50;5009552;28;20370;-73
2023/08/10 10:58:06;;;;;;;1.98;1.77;;;;;;;25.61;47.58;102025.34;5008746;28;20065;-72
2023/08/10 11:00:33;;;;;;;4.28;1.65;;;;;;;25.69;48.46;102028.97;5009800;28;20042;-73
2023/08/10 11:02:59;;;;;;;2.45;1.80;;;;;;;25.86;46.52;102026.97;5009675;28;20046;-72
2023/08/10 11:05:24;;;;;;;6.25;1.60;;;;;;;26.07;45.36;102026.34;5009512;28;20037;-73
2023/08/10 11:07:51;;;;;;;3.33;1.80;;;;;;;26.12;43.86;102031.38;5009461;28;20386;-73
2023/08/10 11:10:19;;;;;;;5.93;2.15;;;;;;;26.44;43.53;102027.50;5021522;28;20032;-73
2023/08/10 11:12:48;;;;;;;5.53;1.92;;;;;;;26.60;43.99;102027.34;4990936;28;20346;-74
2023/08/10 11:15:15;;;;;;;5.63;2.00;;;;;;;26.79;41.81;102020.38;5009389;28;20033;-73
2023/08/10 11:17:42;;;;;;;4.32;1.67;;;;;;;27.11;47.85;102018.34;5009318;28;20117;-73
2023/08/10 11:20:14;;;;;;;2.58;1.38;;;;;;;27.46;46.65;102017.53;5009872;28;20184;-73
2023/08/10 11:22:43;;;;;;;3.55;1.63;;;;;;;27.34;45.68;102018.25;5009342;28;20168;-73
2023/08/10 11:25:23;;;;;;;5.90;2.40;;;;;;;27.33;46.53;102025.75;5007903;28;20116;-73